createdAt,value
2018-05-26T17:16:40.985Z,24.02
2018-05-26T17:17:21.591Z,23.96
2018-05-26T17:18:02.141Z,23.96
2018-05-26T17:18:42.702Z,23.99
2018-05-26T17:19:23.275Z,23.96
2018-05-26T17:20:03.832Z,23.92
2018-05-26T17:20:44.414Z,23.96
2018-05-26T17:21:24.978Z,23.88
2018-05-26T17:22:05.535Z,23.84
2018-05-26T17:22:46.135Z,23.96
2018-05-26T17:23:26.754Z,23.92
2018-05-26T17:24:07.318Z,23.92
2018-05-26T17:24:47.866Z,23.86
2018-05-26T17:25:28.426Z,23.86
2018-05-26T17:26:09.010Z,23.81
2018-05-26T17:26:49.574Z,23.84
2018-05-26T17:27:30.146Z,23.86
2018-05-26T17:28:10.737Z,23.74
2018-05-26T17:28:51.304Z,23.78
2018-05-26T17:29:31.849Z,23.77
2018-05-26T17:30:12.428Z,23.74
2018-05-26T17:30:53.009Z,23.78
2018-05-26T17:31:33.560Z,23.68
2018-05-26T17:32:14.125Z,23.69
2018-05-26T17:32:54.682Z,23.69
2018-05-26T17:33:35.321Z,23.77
2018-05-26T17:34:15.924Z,23.71
2018-05-26T17:34:56.488Z,23.73
2018-05-26T17:35:37.076Z,23.73
2018-05-26T17:36:17.614Z,23.66
2018-05-26T17:36:58.176Z,23.73
2018-05-26T17:37:38.727Z,23.71
2018-05-26T17:38:19.269Z,23.71
2018-05-26T17:38:59.838Z,23.71
2018-05-26T17:39:40.402Z,23.68
2018-05-26T17:40:20.957Z,23.71
2018-05-26T17:41:01.556Z,23.66
2018-05-26T17:41:42.115Z,23.71
2018-05-26T17:42:22.700Z,23.69
2018-05-26T17:43:03.290Z,23.62
2018-05-26T17:43:43.833Z,23.71
2018-05-26T17:44:24.404Z,23.71
2018-05-26T17:45:04.972Z,23.61
2018-05-26T17:45:45.587Z,23.54
2018-05-26T17:46:26.161Z,23.51
2018-05-26T17:47:06.741Z,23.54
2018-05-26T17:47:47.299Z,23.61
2018-05-26T17:48:27.859Z,23.61
2018-05-26T17:49:08.456Z,23.5
2018-05-26T17:49:49.035Z,23.58
2018-05-26T17:50:29.616Z,23.48
2018-05-26T17:51:10.280Z,23.5
2018-05-26T17:51:50.920Z,23.51
2018-05-26T17:52:31.504Z,23.47
2018-05-26T17:53:12.078Z,23.51
2018-05-26T17:53:52.683Z,23.47
2018-05-26T17:54:33.292Z,23.46
2018-05-26T17:55:13.854Z,23.47
2018-05-26T17:55:54.392Z,23.48
2018-05-26T17:56:34.958Z,23.47
2018-05-26T17:57:15.505Z,23.4
2018-05-26T17:57:56.060Z,23.47
2018-05-26T17:58:36.684Z,23.37
2018-05-26T17:59:17.227Z,23.5
2018-05-26T17:59:57.771Z,23.43
2018-05-26T18:00:38.309Z,23.43
2018-05-26T18:01:18.853Z,23.41
2018-05-26T18:01:59.481Z,23.39
2018-05-26T18:02:39.999Z,23.47
2018-05-26T18:03:20.576Z,23.51
2018-05-26T18:04:01.130Z,23.46
2018-05-26T18:04:41.713Z,23.5
2018-05-26T18:05:22.275Z,23.39
2018-05-26T18:06:02.855Z,23.41
2018-05-26T18:06:43.476Z,23.43
2018-05-26T18:07:24.067Z,23.4
2018-05-26T18:08:04.666Z,23.37
2018-05-26T18:08:45.259Z,23.43
2018-05-26T18:09:25.839Z,23.47
2018-05-26T18:10:06.422Z,23.5
2018-05-26T18:10:47.003Z,23.41
2018-05-26T18:11:27.591Z,23.36
2018-05-26T18:12:08.150Z,23.36
2018-05-26T18:12:48.726Z,23.31
2018-05-26T18:13:29.287Z,23.36
2018-05-26T18:14:09.879Z,23.34
2018-05-26T18:14:50.440Z,23.32
2018-05-26T18:15:31.012Z,23.37
2018-05-26T18:16:11.612Z,23.37
2018-05-26T18:16:52.172Z,23.36
2018-05-26T18:17:32.898Z,23.25
2018-05-26T18:18:13.494Z,23.36
2018-05-26T18:18:54.078Z,23.32
2018-05-26T18:19:34.679Z,23.15
2018-05-26T18:20:15.296Z,23.27
2018-05-26T18:20:55.928Z,23.27
2018-05-26T18:21:36.483Z,23.24
2018-05-26T18:22:17.073Z,23.27
2018-05-26T18:22:57.627Z,23.23
2018-05-26T18:23:38.196Z,23.15
2018-05-26T18:24:18.742Z,23.13
2018-05-26T18:24:59.320Z,23.17
2018-05-26T18:25:40.017Z,23.18
2018-05-26T18:26:20.636Z,23.15
2018-05-26T18:27:01.366Z,23.17
2018-05-26T18:27:42.045Z,23.15
2018-05-26T18:28:22.623Z,23.13
2018-05-26T18:29:03.224Z,23.15
2018-05-26T18:29:43.784Z,23.13
2018-05-26T18:30:24.389Z,23.08
2018-05-26T18:31:04.966Z,23.1
2018-05-26T18:31:45.687Z,23.09
2018-05-26T18:32:26.314Z,23.13
2018-05-26T18:33:06.977Z,23.06
2018-05-26T18:33:47.652Z,23.03
2018-05-26T18:34:28.226Z,23.08
2018-05-26T18:35:08.784Z,23.05
2018-05-26T18:35:49.361Z,23.03
2018-05-26T18:36:29.921Z,23.09
2018-05-26T18:37:10.492Z,23.09
2018-05-26T18:37:51.080Z,23.03
2018-05-26T18:38:31.631Z,23.05
2018-05-26T18:39:12.168Z,23.09
2018-05-26T18:39:52.803Z,23.08
2018-05-26T18:40:33.341Z,23.05
2018-05-26T18:41:13.963Z,23.06
2018-05-26T18:41:54.550Z,23.02
2018-05-26T18:42:35.101Z,23.05
2018-05-26T18:43:15.661Z,23.02
2018-05-26T18:43:56.237Z,23.03
2018-05-26T18:44:36.777Z,23.02
2018-05-26T18:45:17.352Z,23.02
2018-05-26T18:45:57.932Z,23.02
2018-05-26T18:46:38.511Z,23.08
2018-05-26T18:47:19.137Z,23
2018-05-26T18:47:59.683Z,22.99
2018-05-26T18:48:40.296Z,22.94
2018-05-26T18:49:21.053Z,23.03
2018-05-26T18:50:01.625Z,23.03
2018-05-26T18:50:42.239Z,23
2018-05-26T18:51:22.791Z,22.93
2018-05-26T18:52:03.304Z,22.93
2018-05-26T18:52:43.853Z,22.88
2018-05-26T18:53:24.428Z,22.94
2018-05-26T18:54:05.012Z,22.9
2018-05-26T18:54:45.608Z,22.88
2018-05-26T18:55:26.184Z,22.88
2018-05-26T18:56:06.777Z,22.9
2018-05-26T18:56:47.324Z,22.85
2018-05-26T18:57:28.113Z,22.91
2018-05-26T18:58:08.713Z,22.84
2018-05-26T18:58:49.267Z,22.9
2018-05-26T18:59:29.907Z,22.88
2018-05-26T19:00:10.469Z,22.84
2018-05-26T19:00:51.054Z,22.84
2018-05-26T19:01:31.626Z,22.85
2018-05-26T19:02:12.198Z,22.83
2018-05-26T19:02:52.728Z,22.81
2018-05-26T19:03:33.350Z,22.75
2018-05-26T19:04:13.918Z,22.75
2018-05-26T19:04:54.477Z,22.76
2018-05-26T19:05:35.167Z,22.85
2018-05-26T19:06:15.751Z,22.83
2018-05-26T19:06:56.334Z,22.83
2018-05-26T19:07:36.896Z,22.87
2018-05-26T19:08:17.486Z,22.76
2018-05-26T19:08:58.071Z,22.81
2018-05-26T19:09:38.631Z,22.8
2018-05-26T19:10:19.216Z,22.73
2018-05-26T19:10:59.762Z,22.72
2018-05-26T19:11:40.323Z,22.65
2018-05-26T19:12:20.868Z,22.78
2018-05-26T19:13:01.471Z,22.8
2018-05-26T19:13:42.010Z,22.72
2018-05-26T19:14:22.648Z,22.66
2018-05-26T19:15:03.214Z,22.63
2018-05-26T19:15:43.767Z,22.76
2018-05-26T19:16:24.329Z,22.68
2018-05-26T19:17:04.884Z,22.81
2018-05-26T19:17:45.456Z,22.8
2018-05-26T19:18:26.011Z,22.7
2018-05-26T19:19:06.575Z,22.65
2018-05-26T19:19:47.148Z,22.62
2018-05-26T19:20:27.716Z,22.75
2018-05-26T19:21:08.301Z,22.59
2018-05-26T19:21:48.901Z,22.68
2018-05-26T19:22:29.494Z,22.62
2018-05-26T19:23:10.154Z,22.66
2018-05-26T19:23:50.961Z,22.65
2018-05-26T19:24:32.100Z,22.63
2018-05-26T19:25:13.209Z,22.66
2018-05-26T19:25:54.407Z,22.57
2018-05-26T19:26:35.105Z,22.68
2018-05-26T19:27:15.627Z,22.54
2018-05-26T19:27:56.188Z,22.68
2018-05-26T19:28:36.813Z,22.65
2018-05-26T19:29:17.390Z,22.5
2018-05-26T19:29:58.020Z,22.54
2018-05-26T19:30:38.639Z,22.57
2018-05-26T19:31:19.204Z,22.54
2018-05-26T19:31:59.832Z,22.6
2018-05-26T19:32:40.390Z,22.6
2018-05-26T19:33:21.109Z,22.53
2018-05-26T19:34:01.697Z,22.53
2018-05-26T19:34:42.220Z,22.53
2018-05-26T19:35:22.781Z,22.48
2018-05-26T19:36:03.354Z,22.53
2018-05-26T19:36:43.923Z,22.48
2018-05-26T19:37:24.557Z,22.48
2018-05-26T19:38:05.136Z,22.44
2018-05-26T19:38:45.706Z,22.44
2018-05-26T19:39:26.306Z,22.44
2018-05-26T19:40:06.888Z,22.41
2018-05-26T19:40:47.502Z,22.44
2018-05-26T19:41:28.054Z,22.43
2018-05-26T19:42:08.743Z,22.41
2018-05-26T19:42:49.417Z,22.45
2018-05-26T19:43:29.978Z,22.47
2018-05-26T19:44:10.538Z,22.39
2018-05-26T19:44:51.106Z,22.45
2018-05-26T19:45:31.775Z,22.3
2018-05-26T19:46:12.348Z,22.45
2018-05-26T19:46:52.896Z,22.33
2018-05-26T19:47:33.563Z,22.43
2018-05-26T19:48:14.160Z,22.43
2018-05-26T19:48:54.870Z,22.43
2018-05-26T19:49:35.449Z,22.39
2018-05-26T19:50:15.995Z,22.38
2018-05-26T19:50:56.561Z,22.43
2018-05-26T19:51:37.183Z,22.39
2018-05-26T19:52:17.742Z,22.43
2018-05-26T19:52:58.290Z,22.41
2018-05-26T19:53:38.862Z,22.39
2018-05-26T19:54:19.479Z,22.29
2018-05-26T19:55:00.021Z,22.33
2018-05-26T19:55:40.594Z,22.25
2018-05-26T19:56:21.274Z,22.39
2018-05-26T19:57:01.857Z,22.41
2018-05-26T19:57:42.438Z,22.33
2018-05-26T19:58:23.067Z,22.41
2018-05-26T19:59:03.585Z,22.29
2018-05-26T19:59:44.230Z,22.32
2018-05-26T20:00:24.971Z,22.3
2018-05-26T20:01:05.574Z,22.32
2018-05-26T20:01:46.151Z,22.26
2018-05-26T20:02:26.730Z,22.28
2018-05-26T20:03:07.288Z,22.35
2018-05-26T20:03:47.949Z,22.26
2018-05-26T20:04:28.564Z,22.35
2018-05-26T20:05:09.159Z,22.32
2018-05-26T20:05:49.785Z,22.33
2018-05-26T20:06:30.358Z,22.3
2018-05-26T20:07:10.935Z,22.28
2018-05-26T20:07:51.526Z,22.33
2018-05-26T20:08:32.202Z,22.35
2018-05-26T20:09:12.788Z,22.26
2018-05-26T20:09:53.375Z,22.3
2018-05-26T20:10:33.974Z,22.36
2018-05-26T20:11:14.726Z,22.28
2018-05-26T20:11:55.304Z,22.28
2018-05-26T20:12:35.851Z,22.26
2018-05-26T20:13:16.425Z,22.29
2018-05-26T20:13:57.032Z,22.28
2018-05-26T20:14:37.611Z,22.39
2018-05-26T20:15:18.232Z,22.35
2018-05-26T20:15:58.841Z,22.41
2018-05-26T20:16:39.474Z,22.35
2018-05-26T20:17:20.031Z,22.26
2018-05-26T20:18:00.625Z,22.25
2018-05-26T20:18:41.303Z,22.28
2018-05-26T20:19:21.940Z,22.26
2018-05-26T20:20:02.460Z,22.26
2018-05-26T20:20:43.057Z,22.29
2018-05-26T20:21:23.627Z,22.22
2018-05-26T20:22:04.271Z,22.22
2018-05-26T20:22:44.849Z,22.28
2018-05-26T20:23:25.519Z,22.29
2018-05-26T20:24:06.110Z,22.23
2018-05-26T20:24:46.665Z,22.29
2018-05-26T20:25:27.270Z,22.28
2018-05-26T20:26:07.805Z,22.32
2018-05-26T20:26:48.404Z,22.23
2018-05-26T20:27:28.953Z,22.25
2018-05-26T20:28:09.525Z,22.23
2018-05-26T20:28:50.087Z,22.23
2018-05-26T20:29:30.633Z,22.22
2018-05-26T20:30:11.266Z,22.22
2018-05-26T20:30:51.855Z,22.22
2018-05-26T20:31:32.450Z,22.26
2018-05-26T20:32:13.067Z,22.22
2018-05-26T20:32:53.647Z,22.29
2018-05-26T20:33:34.184Z,22.25
2018-05-26T20:34:14.736Z,22.3
2018-05-26T20:34:55.333Z,22.26
2018-05-26T20:35:35.895Z,22.26
2018-05-26T20:36:16.467Z,22.26
2018-05-26T20:36:57.046Z,22.26
2018-05-26T20:37:37.614Z,22.26
2018-05-26T20:38:18.199Z,22.2
2018-05-26T20:38:58.740Z,22.22
2018-05-26T20:39:39.293Z,22.23
2018-05-26T20:40:19.861Z,22.17
2018-05-26T20:41:00.491Z,22.15
2018-05-26T20:41:41.235Z,22.18
2018-05-26T20:42:21.817Z,22.14
2018-05-26T20:43:02.365Z,22.17
2018-05-26T20:43:42.934Z,22.11
2018-05-26T20:44:23.475Z,22.18
2018-05-26T20:45:04.058Z,22.06
2018-05-26T20:45:44.605Z,22.07
2018-05-26T20:46:25.168Z,22.11
2018-05-26T20:47:05.717Z,22
2018-05-26T20:47:46.416Z,22
2018-05-26T20:48:26.923Z,22.07
2018-05-26T20:49:07.494Z,22.13
2018-05-26T20:49:48.069Z,22.1
2018-05-26T20:50:28.614Z,22.04
2018-05-26T20:51:09.167Z,22.11
2018-05-26T20:51:49.733Z,22.08
2018-05-26T20:52:30.324Z,22.11
2018-05-26T20:53:10.917Z,22.08
2018-05-26T20:53:51.547Z,22.11
2018-05-26T20:54:32.098Z,22.15
2018-05-26T20:55:12.655Z,22.07
2018-05-26T20:55:53.211Z,22.13
2018-05-26T20:56:33.832Z,22.08
2018-05-26T20:57:14.328Z,22.15
2018-05-26T20:57:54.908Z,22.07
2018-05-26T20:58:35.504Z,22.02
2018-05-26T20:59:16.063Z,22.02
2018-05-26T20:59:56.694Z,22.07
2018-05-26T21:00:37.169Z,22.06
2018-05-26T21:01:17.737Z,22.04
2018-05-26T21:01:58.280Z,22.07
2018-05-26T21:02:38.912Z,22.07
2018-05-26T21:03:19.455Z,22
2018-05-26T21:04:00.016Z,22.07
2018-05-26T21:04:40.583Z,22.11
2018-05-26T21:05:21.198Z,22.04
2018-05-26T21:06:01.851Z,21.99
2018-05-26T21:06:42.429Z,22
2018-05-26T21:07:23.012Z,22.04
2018-05-26T21:08:03.567Z,22.1
2018-05-26T21:08:44.128Z,22.07
2018-05-26T21:09:24.691Z,22
2018-05-26T21:10:05.234Z,21.95
2018-05-26T21:10:45.804Z,21.99
2018-05-26T21:11:26.389Z,21.91
2018-05-26T21:12:06.996Z,21.96
2018-05-26T21:12:47.622Z,21.95
2018-05-26T21:13:28.174Z,21.92
2018-05-26T21:14:08.725Z,21.91
2018-05-26T21:14:49.282Z,21.92
2018-05-26T21:15:29.947Z,21.95
2018-05-26T21:16:10.513Z,21.92
2018-05-26T21:16:51.118Z,21.89
2018-05-26T21:17:31.684Z,21.93
2018-05-26T21:18:12.248Z,21.77
2018-05-26T21:18:52.853Z,21.83
2018-05-26T21:19:33.406Z,21.79
2018-05-26T21:20:13.994Z,21.77
2018-05-26T21:20:54.580Z,21.83
2018-05-26T21:21:35.182Z,21.83
2018-05-26T21:22:15.768Z,21.83
2018-05-26T21:22:56.373Z,21.85
2018-05-26T21:23:36.920Z,21.8
2018-05-26T21:24:17.548Z,21.76
2018-05-26T21:24:58.058Z,21.89
2018-05-26T21:25:38.625Z,21.83
2018-05-26T21:26:19.194Z,21.89
2018-05-26T21:26:59.789Z,21.8
2018-05-26T21:27:40.635Z,21.73
2018-05-26T21:28:21.117Z,21.72
2018-05-26T21:29:01.690Z,21.69
2018-05-26T21:29:42.277Z,21.69
2018-05-26T21:30:22.827Z,21.76
2018-05-26T21:31:03.420Z,21.8
2018-05-26T21:31:43.992Z,21.72
2018-05-26T21:32:24.601Z,21.72
2018-05-26T21:33:05.150Z,21.73
2018-05-26T21:33:45.700Z,21.76
2018-05-26T21:34:26.271Z,21.7
2018-05-26T21:35:06.833Z,21.73
2018-05-26T21:35:47.380Z,21.72
2018-05-26T21:36:28.040Z,21.7
2018-05-26T21:37:08.586Z,21.64
2018-05-26T21:37:49.169Z,21.69
2018-05-26T21:38:29.869Z,21.54
2018-05-26T21:39:10.539Z,21.52
2018-05-26T21:39:51.105Z,21.66
2018-05-26T21:40:31.666Z,21.62
2018-05-26T21:41:12.272Z,21.58
2018-05-26T21:41:52.837Z,21.69
2018-05-26T21:42:33.409Z,21.55
2018-05-26T21:43:13.980Z,21.64
2018-05-26T21:43:54.564Z,21.7
2018-05-26T21:44:35.116Z,21.48
2018-05-26T21:45:15.672Z,21.62
2018-05-26T21:45:56.207Z,21.64
2018-05-26T21:46:36.808Z,21.52
2018-05-26T21:47:17.385Z,21.52
2018-05-26T21:47:57.950Z,21.54
2018-05-26T21:48:38.519Z,21.51
2018-05-26T21:49:19.090Z,21.52
2018-05-26T21:49:59.685Z,21.54
2018-05-26T21:50:40.265Z,21.58
2018-05-26T21:51:20.835Z,21.5
2018-05-26T21:52:01.347Z,21.61
2018-05-26T21:52:41.931Z,21.51
2018-05-26T21:53:22.465Z,21.48
2018-05-26T21:54:03.029Z,21.52
2018-05-26T21:54:43.614Z,21.51
2018-05-26T21:55:24.180Z,21.46
2018-05-26T21:56:04.780Z,21.51
2018-05-26T21:56:45.331Z,21.55
2018-05-26T21:57:25.873Z,21.51
2018-05-26T21:58:06.442Z,21.46
2018-05-26T21:58:47.010Z,21.46
2018-05-26T21:59:27.602Z,21.52
2018-05-26T22:00:08.207Z,21.6
2018-05-26T22:00:48.757Z,21.46
2018-05-26T22:01:29.307Z,21.51
2018-05-26T22:02:09.859Z,21.52
2018-05-26T22:02:50.466Z,21.5
2018-05-26T22:03:31.005Z,21.46
2018-05-26T22:04:11.597Z,21.46
2018-05-26T22:04:52.156Z,21.51
2018-05-26T22:05:32.737Z,21.45
2018-05-26T22:06:13.266Z,21.46
2018-05-26T22:06:53.836Z,21.4
2018-05-26T22:07:34.399Z,21.42
2018-05-26T22:08:14.969Z,21.45
2018-05-26T22:08:55.517Z,21.48
2018-05-26T22:09:36.101Z,21.42
2018-05-26T22:10:16.648Z,21.39
2018-05-26T22:10:57.303Z,21.36
2018-05-26T22:11:37.809Z,21.5
2018-05-26T22:12:18.432Z,21.4
2018-05-26T22:12:58.986Z,21.37
2018-05-26T22:13:39.547Z,21.37
2018-05-26T22:14:20.133Z,21.35
2018-05-26T22:15:00.628Z,21.37
2018-05-26T22:15:41.181Z,21.39
2018-05-26T22:16:21.771Z,21.39
2018-05-26T22:17:02.299Z,21.32
2018-05-26T22:17:42.870Z,21.36
2018-05-26T22:18:23.485Z,21.36
2018-05-26T22:19:04.054Z,21.39
2018-05-26T22:19:44.632Z,21.39
2018-05-26T22:20:25.185Z,21.3
2018-05-26T22:21:05.785Z,21.35
2018-05-26T22:21:46.335Z,21.25
2018-05-26T22:22:26.880Z,21.29
2018-05-26T22:23:07.441Z,21.22
2018-05-26T22:23:47.974Z,21.21
2018-05-26T22:24:28.506Z,21.29
2018-05-26T22:25:09.066Z,21.25
2018-05-26T22:25:49.744Z,21.29
2018-05-26T22:26:30.368Z,21.22
2018-05-26T22:27:10.891Z,21.21
2018-05-26T22:27:51.459Z,21.27
2018-05-26T22:28:32.036Z,21.27
2018-05-26T22:29:12.631Z,21.32
2018-05-26T22:29:53.150Z,21.27
2018-05-26T22:30:33.702Z,21.32
2018-05-26T22:31:14.298Z,21.32
2018-05-26T22:31:54.860Z,21.18
2018-05-26T22:32:35.518Z,21.25
2018-05-26T22:33:16.062Z,21.22
2018-05-26T22:33:56.628Z,21.22
2018-05-26T22:34:37.193Z,21.15
2018-05-26T22:35:17.785Z,21.25
2018-05-26T22:35:58.335Z,21.2
2018-05-26T22:36:38.890Z,21.18
2018-05-26T22:37:19.461Z,21.22
2018-05-26T22:38:00.003Z,21.2
2018-05-26T22:38:40.668Z,21.24
2018-05-26T22:39:21.242Z,21.24
2018-05-26T22:40:01.774Z,21.21
2018-05-26T22:40:42.383Z,21.12
2018-05-26T22:41:22.928Z,21.2
2018-05-26T22:42:03.476Z,21.2
2018-05-26T22:42:44.100Z,21.17
2018-05-26T22:43:24.836Z,21.2
2018-05-26T22:44:05.390Z,21.2
2018-05-26T22:44:45.937Z,21.12
2018-05-26T22:45:26.488Z,21.24
2018-05-26T22:46:07.093Z,21.22
2018-05-26T22:46:47.760Z,21.15
2018-05-26T22:47:28.375Z,21.22
2018-05-26T22:48:08.949Z,21.2
2018-05-26T22:48:49.627Z,21.21
2018-05-26T22:49:30.216Z,21.18
2018-05-26T22:50:10.785Z,21.21
2018-05-26T22:50:51.369Z,21.15
2018-05-26T22:51:31.980Z,21.12
2018-05-26T22:52:12.547Z,21.14
2018-05-26T22:52:53.119Z,21.15
2018-05-26T22:53:33.869Z,21.2
2018-05-26T22:54:14.456Z,21.17
2018-05-26T22:54:55.337Z,21.11
2018-05-26T22:55:36.077Z,21.07
2018-05-26T22:56:16.807Z,21.07
2018-05-26T22:56:57.529Z,21.12
2018-05-26T22:57:38.058Z,21.14
2018-05-26T22:58:18.847Z,21.15
2018-05-26T22:58:59.382Z,21.07
2018-05-26T22:59:40.022Z,21.15
2018-05-26T23:00:20.599Z,21.12
2018-05-26T23:01:01.088Z,21.18
2018-05-26T23:01:41.623Z,21.2
2018-05-26T23:02:22.179Z,21.14
2018-05-26T23:03:02.739Z,21.17
2018-05-26T23:03:43.285Z,21.06
2018-05-26T23:04:23.819Z,21.12
2018-05-26T23:05:04.376Z,21.09
2018-05-26T23:05:44.922Z,21.11
2018-05-26T23:06:25.471Z,21.09
2018-05-26T23:07:06.067Z,21.07
2018-05-26T23:07:46.575Z,21.07
2018-05-26T23:08:27.126Z,21.12
2018-05-26T23:09:07.655Z,21.12
2018-05-26T23:09:48.217Z,21.09
2018-05-26T23:10:28.809Z,21.09
2018-05-26T23:11:09.314Z,21.15
2018-05-26T23:11:49.842Z,21.03
2018-05-26T23:12:30.390Z,21
2018-05-26T23:13:10.945Z,21.05
2018-05-26T23:13:51.481Z,21.03
2018-05-26T23:14:32.047Z,21.15
2018-05-26T23:15:12.590Z,21
2018-05-26T23:15:53.161Z,21.12
2018-05-26T23:16:33.705Z,21.02
2018-05-26T23:17:14.253Z,21.11
2018-05-26T23:17:54.845Z,21.06
2018-05-26T23:18:35.391Z,21.05
2018-05-26T23:19:16.070Z,21.06
2018-05-26T23:19:56.601Z,20.99
2018-05-26T23:20:37.161Z,21.07
2018-05-26T23:21:17.724Z,21.07
2018-05-26T23:21:58.280Z,20.97
2018-05-26T23:22:38.827Z,20.95
2018-05-26T23:23:19.376Z,21.02
2018-05-26T23:23:59.916Z,20.95
2018-05-26T23:24:40.530Z,20.99
2018-05-26T23:25:21.204Z,20.93
2018-05-26T23:26:01.783Z,20.97
2018-05-26T23:26:42.327Z,20.87
2018-05-26T23:27:22.894Z,20.99
2018-05-26T23:28:03.456Z,20.88
2018-05-26T23:28:44.042Z,20.85
2018-05-26T23:29:24.595Z,20.87
2018-05-26T23:30:05.131Z,20.9
2018-05-26T23:30:45.671Z,20.88
2018-05-26T23:31:26.211Z,20.88
2018-05-26T23:32:06.771Z,20.92
2018-05-26T23:32:47.337Z,20.9
2018-05-26T23:33:27.917Z,20.85
2018-05-26T23:34:08.482Z,20.82
2018-05-26T23:34:49.045Z,20.81
2018-05-26T23:35:29.617Z,20.85
2018-05-26T23:36:10.165Z,20.82
2018-05-26T23:36:50.727Z,20.82
2018-05-26T23:37:31.392Z,20.82
2018-05-26T23:38:11.948Z,20.81
2018-05-26T23:38:52.537Z,20.78
2018-05-26T23:39:33.080Z,20.77
2018-05-26T23:40:13.653Z,20.78
2018-05-26T23:40:54.204Z,20.82
2018-05-26T23:41:34.769Z,20.77
2018-05-26T23:42:15.330Z,20.82
2018-05-26T23:42:55.977Z,20.75
2018-05-26T23:43:36.490Z,20.87
2018-05-26T23:44:17.053Z,20.82
2018-05-26T23:44:57.608Z,20.82
2018-05-26T23:45:38.173Z,20.75
2018-05-26T23:46:18.727Z,20.74
2018-05-26T23:46:59.276Z,20.72
2018-05-26T23:47:39.843Z,20.74
2018-05-26T23:48:20.427Z,20.72
2018-05-26T23:49:01.016Z,20.67
2018-05-26T23:49:41.570Z,20.69
2018-05-26T23:50:22.154Z,20.67
2018-05-26T23:51:02.711Z,20.74
2018-05-26T23:51:43.281Z,20.67
2018-05-26T23:52:23.834Z,20.63
2018-05-26T23:53:04.366Z,20.66
2018-05-26T23:53:44.917Z,20.65
2018-05-26T23:54:25.524Z,20.63
2018-05-26T23:55:06.141Z,20.65
2018-05-26T23:55:46.668Z,20.62
2018-05-26T23:56:27.197Z,20.55
2018-05-26T23:57:07.745Z,20.63
2018-05-26T23:57:48.268Z,20.58
2018-05-26T23:58:28.819Z,20.58
2018-05-26T23:59:09.367Z,20.58
2018-05-26T23:59:49.937Z,20.52
